sensor_id;sensor_type;location;lat;lon;timestamp;pressure;altitude;pressure_sealevel;temperature;humidity
75420;BME280;63998;52.488;13.428;2023-01-20T00:00:45;100435.97;;;2.20;75.50
75420;BME280;63998;52.488;13.428;2023-01-20T00:03:11;100435.25;;;2.25;75.51
75420;BME280;63998;52.488;13.428;2023-01-20T00:05:36;100434.41;;;2.25;75.55
75420;BME280;63998;52.488;13.428;2023-01-20T00:08:04;100437.81;;;2.25;75.46
75420;BME280;63998;52.488;13.428;2023-01-20T00:10:31;100434.97;;;2.43;75.92
75420;BME280;63998;52.488;13.428;2023-01-20T00:12:57;100436.19;;;2.56;75.48
75420;BME280;63998;52.488;13.428;2023-01-20T00:15:22;100440.13;;;2.44;75.17
75420;BME280;63998;52.488;13.428;2023-01-20T00:17:50;100444.44;;;2.45;75.20
75420;BME280;63998;52.488;13.428;2023-01-20T00:20:16;100433.38;;;2.46;75.78
75420;BME280;63998;52.488;13.428;2023-01-20T00:22:41;100444.44;;;2.45;75.76
75420;BME280;63998;52.488;13.428;2023-01-20T00:25:08;100439.38;;;2.48;76.02
75420;BME280;63998;52.488;13.428;2023-01-20T00:27:34;100438.84;;;2.59;76.00
75420;BME280;63998;52.488;13.428;2023-01-20T00:30:03;100447.91;;;2.77;76.24
75420;BME280;63998;52.488;13.428;2023-01-20T00:32:35;100455.88;;;2.86;75.78
75420;BME280;63998;52.488;13.428;2023-01-20T00:35:01;100450.88;;;2.91;74.98
75420;BME280;63998;52.488;13.428;2023-01-20T00:37:31;100453.03;;;3.07;75.45
75420;BME280;63998;52.488;13.428;2023-01-20T00:39:56;100457.34;;;3.08;74.92
75420;BME280;63998;52.488;13.428;2023-01-20T00:42:24;100460.91;;;3.13;74.89
75420;BME280;63998;52.488;13.428;2023-01-20T00:44:52;100458.19;;;3.07;74.08
75420;BME280;63998;52.488;13.428;2023-01-20T00:47:19;100469.13;;;3.02;74.44
75420;BME280;63998;52.488;13.428;2023-01-20T00:49:46;100456.44;;;3.06;74.02
75420;BME280;63998;52.488;13.428;2023-01-20T00:52:11;100466.75;;;3.09;74.30
75420;BME280;63998;52.488;13.428;2023-01-20T00:54:37;100470.00;;;3.02;73.71
75420;BME280;63998;52.488;13.428;2023-01-20T00:57:02;100470.03;;;3.04;73.28
75420;BME280;63998;52.488;13.428;2023-01-20T00:59:28;100472.59;;;3.04;73.47
75420;BME280;63998;52.488;13.428;2023-01-20T01:01:53;100470.13;;;3.07;72.95
75420;BME280;63998;52.488;13.428;2023-01-20T01:04:18;100476.34;;;3.15;73.74
75420;BME280;63998;52.488;13.428;2023-01-20T01:06:44;100482.50;;;3.21;73.12
75420;BME280;63998;52.488;13.428;2023-01-20T01:09:09;100489.53;;;3.29;73.49
75420;BME280;63998;52.488;13.428;2023-01-20T01:11:34;100486.25;;;3.33;72.97
75420;BME280;63998;52.488;13.428;2023-01-20T01:14:02;100485.97;;;3.23;72.59
75420;BME280;63998;52.488;13.428;2023-01-20T01:16:27;100494.59;;;3.25;72.05
75420;BME280;63998;52.488;13.428;2023-01-20T01:18:53;100497.97;;;3.24;72.32
75420;BME280;63998;52.488;13.428;2023-01-20T01:21:19;100497.25;;;3.29;72.12
75420;BME280;63998;52.488;13.428;2023-01-20T01:23:45;100491.38;;;3.33;72.31
75420;BME280;63998;52.488;13.428;2023-01-20T01:26:11;100491.38;;;3.33;71.99
75420;BME280;63998;52.488;13.428;2023-01-20T01:28:36;100488.91;;;3.37;72.21
75420;BME280;63998;52.488;13.428;2023-01-20T01:31:03;100496.56;;;3.36;71.35
75420;BME280;63998;52.488;13.428;2023-01-20T01:33:32;100498.31;;;3.37;71.60
75420;BME280;63998;52.488;13.428;2023-01-20T01:35:59;100504.13;;;3.30;71.68
75420;BME280;63998;52.488;13.428;2023-01-20T01:38:25;100516.84;;;3.27;71.61
75420;BME280;63998;52.488;13.428;2023-01-20T01:40:51;100503.03;;;3.21;71.53
75420;BME280;63998;52.488;13.428;2023-01-20T01:43:23;100507.59;;;3.32;72.18
75420;BME280;63998;52.488;13.428;2023-01-20T01:45:51;100510.06;;;3.29;72.46
75420;BME280;63998;52.488;13.428;2023-01-20T01:48:22;100504.13;;;3.30;72.04
75420;BME280;63998;52.488;13.428;2023-01-20T01:50:56;100506.59;;;3.27;71.76
75420;BME280;63998;52.488;13.428;2023-01-20T01:53:24;100515.22;;;3.29;71.27
75420;BME280;63998;52.488;13.428;2023-01-20T01:55:53;100515.03;;;3.22;71.90
75420;BME280;63998;52.488;13.428;2023-01-20T01:58:23;100527.13;;;3.27;71.79
75420;BME280;63998;52.488;13.428;2023-01-20T02:00:51;100524.56;;;3.27;71.86
75420;BME280;63998;52.488;13.428;2023-01-20T02:03:22;100527.13;;;3.27;71.67
75420;BME280;63998;52.488;13.428;2023-01-20T02:05:49;100531.38;;;3.26;71.43
75420;BME280;63998;52.488;13.428;2023-01-20T02:08:21;100531.81;;;3.11;71.19
75420;BME280;63998;52.488;13.428;2023-01-20T02:10:47;100537.03;;;3.14;71.64
75420;BME280;63998;52.488;13.428;2023-01-20T02:13:15;100531.91;;;3.14;70.57
75420;BME280;63998;52.488;13.428;2023-01-20T02:16:05;100533.50;;;3.11;70.95
75420;BME280;63998;52.488;13.428;2023-01-20T02:21:48;100551.25;;;3.32;72.79
75420;BME280;63998;52.488;13.428;2023-01-20T02:30:27;100567.84;;;2.58;71.24
75420;BME280;63998;52.488;13.428;2023-01-20T02:32:59;100573.56;;;2.22;72.41
75420;BME280;63998;52.488;13.428;2023-01-20T02:35:36;100582.00;;;2.20;72.94
75420;BME280;63998;52.488;13.428;2023-01-20T02:43:35;100600.88;;;2.23;73.23
75420;BME280;63998;52.488;13.428;2023-01-20T02:51:37;100607.88;;;2.27;73.57
75420;BME280;63998;52.488;13.428;2023-01-20T02:54:09;100617.94;;;2.21;73.63
75420;BME280;63998;52.488;13.428;2023-01-20T02:56:35;100618.56;;;2.15;73.56
75420;BME280;63998;52.488;13.428;2023-01-20T02:59:11;100614.31;;;2.16;74.04
75420;BME280;63998;52.488;13.428;2023-01-20T03:02:10;100612.47;;;2.12;74.09
75420;BME280;63998;52.488;13.428;2023-01-20T03:04:43;100616.59;;;2.32;74.77
75420;BME280;63998;52.488;13.428;2023-01-20T03:07:10;100606.41;;;2.35;73.66
75420;BME280;63998;52.488;13.428;2023-01-20T03:09:40;100617.13;;;2.24;73.01
75420;BME280;63998;52.488;13.428;2023-01-20T03:12:17;100612.16;;;2.28;73.66
75420;BME280;63998;52.488;13.428;2023-01-20T03:14:43;100621.03;;;2.38;73.28
75420;BME280;63998;52.488;13.428;2023-01-20T03:17:08;100622.81;;;2.40;73.20
75420;BME280;63998;52.488;13.428;2023-01-20T03:19:36;100623.34;;;2.30;72.83
75420;BME280;63998;52.488;13.428;2023-01-20T03:22:03;100633.50;;;2.27;72.87
75420;BME280;63998;52.488;13.428;2023-01-20T03:24:30;100627.59;;;2.30;73.94
75420;BME280;63998;52.488;13.428;2023-01-20T03:27:00;100628.97;;;2.45;73.65
75420;BME280;63998;52.488;13.428;2023-01-20T03:29:25;100627.63;;;2.57;74.00
75420;BME280;63998;52.488;13.428;2023-01-20T03:31:54;100628.91;;;2.69;74.41
75420;BME280;63998;52.488;13.428;2023-01-20T03:34:25;100638.28;;;2.69;72.61
75420;BME280;63998;52.488;13.428;2023-01-20T03:36:53;100647.81;;;2.47;72.10
75420;BME280;63998;52.488;13.428;2023-01-20T03:39:23;100652.25;;;2.26;72.73
75420;BME280;63998;52.488;13.428;2023-01-20T03:42:09;100655.41;;;1.94;73.50
75420;BME280;63998;52.488;13.428;2023-01-20T03:44:59;100652.28;;;1.78;74.30
75420;BME280;63998;52.488;13.428;2023-01-20T03:50:36;100651.03;;;1.67;75.00
75420;BME280;63998;52.488;13.428;2023-01-20T03:53:25;100657.81;;;1.43;75.78
75420;BME280;63998;52.488;13.428;2023-01-20T03:55:59;100662.38;;;1.28;76.57
75420;BME280;63998;52.488;13.428;2023-01-20T03:58:36;100665.25;;;1.37;76.56
75420;BME280;63998;52.488;13.428;2023-01-20T04:01:05;100671.59;;;1.24;76.56
75420;BME280;63998;52.488;13.428;2023-01-20T04:03:35;100664.50;;;1.39;77.12
75420;BME280;63998;52.488;13.428;2023-01-20T04:06:06;100675.72;;;1.65;77.24
75420;BME280;63998;52.488;13.428;2023-01-20T04:08:36;100675.25;;;1.53;76.59
75420;BME280;63998;52.488;13.428;2023-01-20T04:11:05;100675.06;;;1.71;76.45
75420;BME280;63998;52.488;13.428;2023-01-20T04:13:36;100674.63;;;1.83;76.20
75420;BME280;63998;52.488;13.428;2023-01-20T04:16:02;100671.59;;;1.93;75.80
75420;BME280;63998;52.488;13.428;2023-01-20T04:18:33;100680.09;;;1.92;75.39
75420;BME280;63998;52.488;13.428;2023-01-20T04:21:02;100677.19;;;1.83;74.92
75420;BME280;63998;52.488;13.428;2023-01-20T04:23:35;100678.00;;;1.82;75.40
75420;BME280;63998;52.488;13.428;2023-01-20T04:26:04;100690.50;;;1.72;75.71
75420;BME280;63998;52.488;13.428;2023-01-20T04:28:30;100689.31;;;1.64;75.66
75420;BME280;63998;52.488;13.428;2023-01-20T04:31:00;100695.38;;;1.66;76.15
75420;BME280;63998;52.488;13.428;2023-01-20T04:33:28;100690.53;;;1.74;76.27
75420;BME280;63998;52.488;13.428;2023-01-20T04:35:53;100691.63;;;1.80;76.28
75420;BME280;63998;52.488;13.428;2023-01-20T04:38:21;100693.31;;;1.80;76.27
75420;BME280;63998;52.488;13.428;2023-01-20T04:40:46;100702.84;;;1.60;76.22
75420;BME280;63998;52.488;13.428;2023-01-20T04:43:11;100695.56;;;1.71;76.36
75420;BME280;63998;52.488;13.428;2023-01-20T04:45:39;100699.81;;;1.94;76.92
75420;BME280;63998;52.488;13.428;2023-01-20T04:48:06;100704.13;;;1.95;76.50
75420;BME280;63998;52.488;13.428;2023-01-20T04:50:31;100706.00;;;2.01;76.04
75420;BME280;63998;52.488;13.428;2023-01-20T04:53:01;100711.78;;;2.19;76.27
75420;BME280;63998;52.488;13.428;2023-01-20T04:55:27;100711.56;;;2.13;75.70
75420;BME280;63998;52.488;13.428;2023-01-20T04:57:55;100708.88;;;2.08;76.65
75420;BME280;63998;52.488;13.428;2023-01-20T05:00:25;100707.88;;;2.05;75.50
75420;BME280;63998;52.488;13.428;2023-01-20T05:02:50;100715.72;;;2.09;75.67
75420;BME280;63998;52.488;13.428;2023-01-20T05:05:17;100712.94;;;1.79;75.92
75420;BME280;63998;52.488;13.428;2023-01-20T05:07:45;100714.91;;;1.64;76.23
75420;BME280;63998;52.488;13.428;2023-01-20T05:10:13;100723.88;;;1.53;76.81
75420;BME280;63998;52.488;13.428;2023-01-20T05:12:38;100729.88;;;1.31;77.04
75420;BME280;63998;52.488;13.428;2023-01-20T05:15:07;100734.13;;;1.31;77.58
75420;BME280;63998;52.488;13.428;2023-01-20T05:17:33;100744.34;;;1.31;77.87
75420;BME280;63998;52.488;13.428;2023-01-20T05:19:58;100739.91;;;1.27;77.85
75420;BME280;63998;52.488;13.428;2023-01-20T05:22:23;100751.91;;;1.28;78.05
75420;BME280;63998;52.488;13.428;2023-01-20T05:24:49;100747.97;;;1.36;77.92
75420;BME280;63998;52.488;13.428;2023-01-20T05:27:14;100757.97;;;1.30;77.78
75420;BME280;63998;52.488;13.428;2023-01-20T05:29:39;100764.94;;;1.34;78.16
75420;BME280;63998;52.488;13.428;2023-01-20T05:32:05;100754.72;;;1.34;77.82
75420;BME280;63998;52.488;13.428;2023-01-20T05:34:30;100771.69;;;1.32;77.60
75420;BME280;63998;52.488;13.428;2023-01-20T05:36:55;100767.19;;;1.47;77.62
75420;BME280;63998;52.488;13.428;2023-01-20T05:39:21;100775.75;;;1.49;78.26
75420;BME280;63998;52.488;13.428;2023-01-20T05:41:46;100777.75;;;1.56;78.34
75420;BME280;63998;52.488;13.428;2023-01-20T05:44:15;100784.28;;;1.48;77.83
75420;BME280;63998;52.488;13.428;2023-01-20T05:46:40;100787.53;;;1.44;77.85
75420;BME280;63998;52.488;13.428;2023-01-20T05:49:05;100792.94;;;1.52;77.75
75420;BME280;63998;52.488;13.428;2023-01-20T05:51:31;100792.88;;;1.50;77.01
75420;BME280;63998;52.488;13.428;2023-01-20T05:53:56;100789.00;;;1.39;77.55
75420;BME280;63998;52.488;13.428;2023-01-20T05:56:22;100800.38;;;1.25;77.39
75420;BME280;63998;52.488;13.428;2023-01-20T05:58:52;100801.41;;;1.07;77.69
75420;BME280;63998;52.488;13.428;2023-01-20T06:01:18;100806.75;;;1.14;78.05
75420;BME280;63998;52.488;13.428;2023-01-20T06:03:48;100805.13;;;1.16;78.27
75420;BME280;63998;52.488;13.428;2023-01-20T06:06:13;100820.56;;;1.17;78.82
75420;BME280;63998;52.488;13.428;2023-01-20T06:08:39;100819.81;;;1.20;78.47
75420;BME280;63998;52.488;13.428;2023-01-20T06:11:05;100822.88;;;1.11;78.11
75420;BME280;63998;52.488;13.428;2023-01-20T06:13:33;100830.34;;;1.06;77.81
75420;BME280;63998;52.488;13.428;2023-01-20T06:16:00;100834.22;;;0.97;77.98
75420;BME280;63998;52.488;13.428;2023-01-20T06:18:25;100828.59;;;1.05;77.59
75420;BME280;63998;52.488;13.428;2023-01-20T06:20:51;100836.19;;;1.25;78.28
75420;BME280;63998;52.488;13.428;2023-01-20T06:23:20;100838.69;;;1.44;79.03
75420;BME280;63998;52.488;13.428;2023-01-20T06:25:45;100837.78;;;1.64;79.13
75420;BME280;63998;52.488;13.428;2023-01-20T06:28:12;100848.16;;;1.90;79.12
75420;BME280;63998;52.488;13.428;2023-01-20T06:30:40;100845.06;;;1.98;79.03
75420;BME280;63998;52.488;13.428;2023-01-20T06:33:09;100855.84;;;1.90;76.63
75420;BME280;63998;52.488;13.428;2023-01-20T06:35:37;100855.75;;;2.09;78.12
75420;BME280;63998;52.488;13.428;2023-01-20T06:38:02;100863.66;;;2.15;77.82
75420;BME280;63998;52.488;13.428;2023-01-20T06:40:28;100869.44;;;2.09;77.60
75420;BME280;63998;52.488;13.428;2023-01-20T06:42:56;100875.91;;;2.22;77.23
75420;BME280;63998;52.488;13.428;2023-01-20T06:45:21;100883.22;;;1.91;75.49
75420;BME280;63998;52.488;13.428;2023-01-20T06:47:48;100885.41;;;1.59;75.71
75420;BME280;63998;52.488;13.428;2023-01-20T06:50:15;100887.25;;;1.42;76.28
75420;BME280;63998;52.488;13.428;2023-01-20T06:52:42;100899.84;;;1.38;76.97
75420;BME280;63998;52.488;13.428;2023-01-20T06:55:08;100902.59;;;1.63;78.48
75420;BME280;63998;52.488;13.428;2023-01-20T06:57:33;100898.34;;;1.64;77.89
75420;BME280;63998;52.488;13.428;2023-01-20T06:59:58;100898.34;;;1.85;77.31
75420;BME280;63998;52.488;13.428;2023-01-20T07:02:24;100903.34;;;1.82;77.32
75420;BME280;63998;52.488;13.428;2023-01-20T07:04:52;100908.94;;;1.94;77.31
75420;BME280;63998;52.488;13.428;2023-01-20T07:07:20;100912.84;;;1.63;75.99
75420;BME280;63998;52.488;13.428;2023-01-20T07:09:52;100917.09;;;1.63;76.15
75420;BME280;63998;52.488;13.428;2023-01-20T07:12:20;100932.72;;;1.48;76.12
75420;BME280;63998;52.488;13.428;2023-01-20T07:14:45;100940.63;;;1.14;76.26
75420;BME280;63998;52.488;13.428;2023-01-20T07:17:11;100937.34;;;1.17;76.52
75420;BME280;63998;52.488;13.428;2023-01-20T07:19:36;100944.06;;;1.15;77.34
75420;BME280;63998;52.488;13.428;2023-01-20T07:22:02;100948.78;;;1.05;77.43
75420;BME280;63998;52.488;13.428;2023-01-20T07:24:27;100958.22;;;1.06;76.99
75420;BME280;63998;52.488;13.428;2023-01-20T07:26:54;100957.22;;;1.03;77.25
75420;BME280;63998;52.488;13.428;2023-01-20T07:29:20;100961.97;;;1.15;77.33
75420;BME280;63998;52.488;13.428;2023-01-20T07:31:45;100952.25;;;1.27;77.56
75420;BME280;63998;52.488;13.428;2023-01-20T07:34:11;100959.50;;;1.37;77.41
75420;BME280;63998;52.488;13.428;2023-01-20T07:36:36;100961.53;;;1.44;77.76
75420;BME280;63998;52.488;13.428;2023-01-20T07:39:01;100963.53;;;1.51;77.37
75420;BME280;63998;52.488;13.428;2023-01-20T07:41:26;100966.13;;;1.32;76.71
75420;BME280;63998;52.488;13.428;2023-01-20T07:43:55;100970.69;;;1.39;76.49
75420;BME280;63998;52.488;13.428;2023-01-20T07:46:20;100969.59;;;1.53;78.23
75420;BME280;63998;52.488;13.428;2023-01-20T07:48:46;100970.16;;;1.46;77.76
75420;BME280;63998;52.488;13.428;2023-01-20T07:51:14;100973.78;;;1.51;78.23
75420;BME280;63998;52.488;13.428;2023-01-20T07:53:42;100972.78;;;1.68;77.88
75420;BME280;63998;52.488;13.428;2023-01-20T07:56:13;100982.53;;;1.56;76.91
75420;BME280;63998;52.488;13.428;2023-01-20T07:58:39;100980.50;;;1.49;76.44
75420;BME280;63998;52.488;13.428;2023-01-20T08:01:19;100982.16;;;1.47;76.43
75420;BME280;63998;52.488;13.428;2023-01-20T08:03:45;100987.88;;;1.62;77.25
75420;BME280;63998;52.488;13.428;2023-01-20T08:06:12;100983.34;;;1.76;77.35
75420;BME280;63998;52.488;13.428;2023-01-20T08:08:38;100988.66;;;1.80;77.74
75420;BME280;63998;52.488;13.428;2023-01-20T08:11:05;100989.63;;;1.63;76.11
75420;BME280;63998;52.488;13.428;2023-01-20T08:13:32;100994.38;;;1.54;76.40
75420;BME280;63998;52.488;13.428;2023-01-20T08:16:07;101002.88;;;1.53;76.44
75420;BME280;63998;52.488;13.428;2023-01-20T08:18:37;101003.25;;;1.62;76.90
75420;BME280;63998;52.488;13.428;2023-01-20T08:21:04;101002.50;;;1.44;75.71
75420;BME280;63998;52.488;13.428;2023-01-20T08:23:33;101010.66;;;1.35;76.30
75420;BME280;63998;52.488;13.428;2023-01-20T08:25:59;101011.00;;;1.64;77.55
75420;BME280;63998;52.488;13.428;2023-01-20T08:28:26;101016.91;;;1.63;77.48
75420;BME280;63998;52.488;13.428;2023-01-20T08:30:52;101024.50;;;1.80;77.15
75420;BME280;63998;52.488;13.428;2023-01-20T08:33:17;101021.78;;;1.97;77.06
75420;BME280;63998;52.488;13.428;2023-01-20T08:35:45;101018.25;;;2.15;76.64
75420;BME280;63998;52.488;13.428;2023-01-20T08:38:10;101018.63;;;2.25;76.12
75420;BME280;63998;52.488;13.428;2023-01-20T08:40:35;101026.00;;;2.17;75.30
75420;BME280;63998;52.488;13.428;2023-01-20T08:43:01;101027.38;;;1.67;73.60
75420;BME280;63998;52.488;13.428;2023-01-20T08:45:26;101030.34;;;1.57;74.10
75420;BME280;63998;52.488;13.428;2023-01-20T08:47:51;101032.25;;;1.82;75.97
75420;BME280;63998;52.488;13.428;2023-01-20T08:50:19;101028.16;;;2.06;77.75
75420;BME280;63998;52.488;13.428;2023-01-20T08:52:47;101029.50;;;2.19;76.71
75420;BME280;63998;52.488;13.428;2023-01-20T08:55:12;101035.13;;;1.90;75.75
75420;BME280;63998;52.488;13.428;2023-01-20T08:57:38;101045.88;;;1.81;75.55
75420;BME280;63998;52.488;13.428;2023-01-20T09:00:05;101052.44;;;1.55;75.14
75420;BME280;63998;52.488;13.428;2023-01-20T09:02:31;101056.09;;;1.22;75.69
75420;BME280;63998;52.488;13.428;2023-01-20T09:04:57;101054.88;;;1.33;76.27
75420;BME280;63998;52.488;13.428;2023-01-20T09:07:24;101057.84;;;1.42;76.87
75420;BME280;63998;52.488;13.428;2023-01-20T09:09:51;101052.84;;;1.64;77.46
75420;BME280;63998;52.488;13.428;2023-01-20T09:12:16;101075.00;;;1.83;77.14
75420;BME280;63998;52.488;13.428;2023-01-20T09:14:41;101065.84;;;1.90;76.88
75420;BME280;63998;52.488;13.428;2023-01-20T09:17:07;101072.97;;;1.76;76.02
75420;BME280;63998;52.488;13.428;2023-01-20T09:19:32;101074.22;;;1.86;76.04
75420;BME280;63998;52.488;13.428;2023-01-20T09:21:57;101078.50;;;1.85;75.62
75420;BME280;63998;52.488;13.428;2023-01-20T09:24:23;101085.84;;;1.98;76.07
75420;BME280;63998;52.488;13.428;2023-01-20T09:26:49;101077.63;;;2.05;75.81
75420;BME280;63998;52.488;13.428;2023-01-20T09:29:19;101090.88;;;2.16;75.58
75420;BME280;63998;52.488;13.428;2023-01-20T09:31:50;101091.13;;;2.43;75.92
75420;BME280;63998;52.488;13.428;2023-01-20T09:34:17;101091.47;;;2.52;75.35
75420;BME280;63998;52.488;13.428;2023-01-20T09:36:50;101095.88;;;2.13;72.37
75420;BME280;63998;52.488;13.428;2023-01-20T09:39:19;101101.28;;;2.00;73.32
75420;BME280;63998;52.488;13.428;2023-01-20T09:42:27;101111.16;;;2.11;74.79
75420;BME280;63998;52.488;13.428;2023-01-20T09:45:26;101118.00;;;2.52;76.77
75420;BME280;63998;52.488;13.428;2023-01-20T09:48:10;101110.47;;;2.78;76.09
75420;BME280;63998;52.488;13.428;2023-01-20T09:50:42;101117.13;;;2.95;74.10
75420;BME280;63998;52.488;13.428;2023-01-20T09:56:04;101124.03;;;2.96;74.35
75420;BME280;63998;52.488;13.428;2023-01-20T09:59:09;101114.63;;;2.33;71.62
75420;BME280;63998;52.488;13.428;2023-01-20T10:01:47;101123.75;;;2.05;72.14
75420;BME280;63998;52.488;13.428;2023-01-20T10:04:20;101117.13;;;2.31;74.35
75420;BME280;63998;52.488;13.428;2023-01-20T10:07:03;101118.38;;;2.41;73.42
75420;BME280;63998;52.488;13.428;2023-01-20T10:12:47;101131.59;;;2.93;75.10
75420;BME280;63998;52.488;13.428;2023-01-20T10:15:21;101137.72;;;2.97;72.94
75420;BME280;63998;52.488;13.428;2023-01-20T10:18:05;101133.69;;;3.03;71.33
75420;BME280;63998;52.488;13.428;2023-01-20T10:20:42;101142.66;;;3.14;71.13
75420;BME280;63998;52.488;13.428;2023-01-20T10:26:25;101138.69;;;3.45;72.63
75420;BME280;63998;52.488;13.428;2023-01-20T10:29:04;101132.88;;;3.27;69.63
75420;BME280;63998;52.488;13.428;2023-01-20T10:31:37;101124.34;;;3.28;71.86
75420;BME280;63998;52.488;13.428;2023-01-20T10:34:08;101131.81;;;3.44;72.63
75420;BME280;63998;52.488;13.428;2023-01-20T10:36:37;101133.56;;;3.45;71.07
75420;BME280;63998;52.488;13.428;2023-01-20T10:39:30;101130.28;;;3.49;69.48
75420;BME280;63998;52.488;13.428;2023-01-20T10:42:04;101138.72;;;3.46;68.75
75420;BME280;63998;52.488;13.428;2023-01-20T10:44:33;101139.16;;;3.57;70.52
75420;BME280;63998;52.488;13.428;2023-01-20T10:52:17;101137.09;;;3.71;70.66
75420;BME280;63998;52.488;13.428;2023-01-20T10:54:53;101151.66;;;3.72;70.11
75420;BME280;63998;52.488;13.428;2023-01-20T10:57:21;101155.38;;;3.56;69.20
75420;BME280;63998;52.488;13.428;2023-01-20T10:59:50;101157.50;;;3.44;69.42
75420;BME280;63998;52.488;13.428;2023-01-20T11:04:58;101150.81;;;3.49;69.29
75420;BME280;63998;52.488;13.428;2023-01-20T11:07:25;101150.13;;;3.53;68.77
75420;BME280;63998;52.488;13.428;2023-01-20T11:09:52;101145.59;;;3.70;69.95
75420;BME280;63998;52.488;13.428;2023-01-20T11:12:21;101156.97;;;3.76;69.08
75420;BME280;63998;52.488;13.428;2023-01-20T11:14:47;101152.31;;;3.66;67.55
75420;BME280;63998;52.488;13.428;2023-01-20T11:17:18;101161.66;;;3.64;67.72
75420;BME280;63998;52.488;13.428;2023-01-20T11:19:54;101153.44;;;3.74;69.23
75420;BME280;63998;52.488;13.428;2023-01-20T11:22:32;101158.47;;;3.71;67.83
75420;BME280;63998;52.488;13.428;2023-01-20T11:25:02;101157.19;;;3.82;70.19
75420;BME280;63998;52.488;13.428;2023-01-20T11:27:39;101157.19;;;3.82;67.88
75420;BME280;63998;52.488;13.428;2023-01-20T11:30:22;101154.28;;;3.73;66.87
75420;BME280;63998;52.488;13.428;2023-01-20T11:38:33;101159.13;;;3.66;67.54
75420;BME280;63998;52.488;13.428;2023-01-20T11:41:21;101157.06;;;3.79;68.49
75420;BME280;63998;52.488;13.428;2023-01-20T11:43:51;101160.13;;;3.93;69.95
75420;BME280;63998;52.488;13.428;2023-01-20T11:46:23;101164.84;;;4.05;68.69
75420;BME280;63998;52.488;13.428;2023-01-20T11:48:49;101161.53;;;4.09;68.69
75420;BME280;63998;52.488;13.428;2023-01-20T11:51:32;101172.75;;;4.11;68.07
75420;BME280;63998;52.488;13.428;2023-01-20T11:54:07;101173.03;;;4.18;68.78
75420;BME280;63998;52.488;13.428;2023-01-20T11:56:42;101166.59;;;4.06;65.90
75420;BME280;63998;52.488;13.428;2023-01-20T11:59:21;101167.16;;;3.98;66.39
75420;BME280;63998;52.488;13.428;2023-01-20T12:01:59;101168.00;;;3.97;66.68
75420;BME280;63998;52.488;13.428;2023-01-20T12:07:55;101179.94;;;3.95;66.82
75420;BME280;63998;52.488;13.428;2023-01-20T12:10:23;101176.44;;;3.93;67.10
75420;BME280;63998;52.488;13.428;2023-01-20T12:13:00;101180.25;;;4.05;67.93
75420;BME280;63998;52.488;13.428;2023-01-20T12:15:31;101182.19;;;4.12;68.92
75420;BME280;63998;52.488;13.428;2023-01-20T12:17:59;101193.75;;;4.48;70.88
75420;BME280;63998;52.488;13.428;2023-01-20T12:20:36;101191.06;;;4.70;69.81
75420;BME280;63998;52.488;13.428;2023-01-20T12:23:31;101192.09;;;4.50;65.70
75420;BME280;63998;52.488;13.428;2023-01-20T12:26:02;101182.22;;;4.37;65.53
75420;BME280;63998;52.488;13.428;2023-01-20T12:28:37;101203.31;;;4.27;65.64
75420;BME280;63998;52.488;13.428;2023-01-20T12:31:08;101198.88;;;4.23;66.33
75420;BME280;63998;52.488;13.428;2023-01-20T12:33:38;101204.94;;;4.25;66.07
75420;BME280;63998;52.488;13.428;2023-01-20T12:42:18;101217.91;;;4.28;66.64
75420;BME280;63998;52.488;13.428;2023-01-20T13:04:14;101255.03;;;4.36;67.14
75420;BME280;63998;52.488;13.428;2023-01-20T13:09:43;101261.00;;;4.35;66.12
75420;BME280;63998;52.488;13.428;2023-01-20T13:12:30;101264.13;;;4.50;66.61
75420;BME280;63998;52.488;13.428;2023-01-20T13:15:08;101264.25;;;4.53;66.37
75420;BME280;63998;52.488;13.428;2023-01-20T13:20:42;101262.13;;;4.18;64.64
75420;BME280;63998;52.488;13.428;2023-01-20T13:23:20;101258.41;;;3.87;65.08
75420;BME280;63998;52.488;13.428;2023-01-20T13:25:49;101270.22;;;4.05;67.02
75420;BME280;63998;52.488;13.428;2023-01-20T13:28:16;101268.56;;;4.07;66.62
75420;BME280;63998;52.488;13.428;2023-01-20T13:30:44;101271.47;;;4.16;66.36
75420;BME280;63998;52.488;13.428;2023-01-20T13:33:33;101267.41;;;4.46;68.14
75420;BME280;63998;52.488;13.428;2023-01-20T13:36:12;101269.38;;;4.53;67.87
75420;BME280;63998;52.488;13.428;2023-01-20T13:38:38;101271.81;;;4.74;66.35
75420;BME280;63998;52.488;13.428;2023-01-20T13:41:04;101268.72;;;4.84;66.64
75420;BME280;63998;52.488;13.428;2023-01-20T13:48:27;101288.44;;;3.88;65.00
75420;BME280;63998;52.488;13.428;2023-01-20T13:50:53;101285.38;;;3.98;66.44
75420;BME280;63998;52.488;13.428;2023-01-20T13:58:24;101289.13;;;3.84;65.72
75420;BME280;63998;52.488;13.428;2023-01-20T14:01:09;101290.53;;;3.76;66.08
75420;BME280;63998;52.488;13.428;2023-01-20T14:03:39;101286.00;;;3.91;67.32
75420;BME280;63998;52.488;13.428;2023-01-20T14:06:05;101293.47;;;4.08;67.66
75420;BME280;63998;52.488;13.428;2023-01-20T14:08:40;101288.41;;;4.11;66.47
75420;BME280;63998;52.488;13.428;2023-01-20T14:11:10;101297.59;;;4.04;66.50
75420;BME280;63998;52.488;13.428;2023-01-20T14:13:39;101295.97;;;4.06;66.26
75420;BME280;63998;52.488;13.428;2023-01-20T14:16:05;101302.91;;;3.86;66.26
75420;BME280;63998;52.488;13.428;2023-01-20T14:18:35;101295.69;;;3.76;66.96
75420;BME280;63998;52.488;13.428;2023-01-20T14:21:16;101310.03;;;3.71;66.20
75420;BME280;63998;52.488;13.428;2023-01-20T14:23:45;101302.53;;;3.33;66.82
75420;BME280;63998;52.488;13.428;2023-01-20T14:26:20;101314.94;;;3.43;68.66
75420;BME280;63998;52.488;13.428;2023-01-20T14:28:52;101317.16;;;3.56;68.68
75420;BME280;63998;52.488;13.428;2023-01-20T14:34:22;101330.16;;;4.04;70.18
75420;BME280;63998;52.488;13.428;2023-01-20T14:36:50;101334.94;;;4.17;66.90